sensor_id;sensor_type;location;lat;lon;timestamp;pressure;altitude;pressure_sealevel;temperature;humidity
27840;BME280;15207;42.182;24.308;2023-04-29T00:00:36;99422.34;;;7.09;80.79
27840;BME280;15207;42.182;24.308;2023-04-29T00:03:02;99426.13;;;7.34;80.56
27840;BME280;15207;42.182;24.308;2023-04-29T00:05:27;99429.34;;;7.39;80.17
27840;BME280;15207;42.182;24.308;2023-04-29T00:07:52;99423.72;;;7.59;78.85
27840;BME280;15207;42.182;24.308;2023-04-29T00:10:18;99422.94;;;7.57;78.63
27840;BME280;15207;42.182;24.308;2023-04-29T00:12:43;99417.28;;;7.48;78.09
27840;BME280;15207;42.182;24.308;2023-04-29T00:15:09;99422.47;;;7.50;78.46
27840;BME280;15207;42.182;24.308;2023-04-29T00:17:35;99422.31;;;7.38;78.28
27840;BME280;15207;42.182;24.308;2023-04-29T00:20:01;99420.25;;;7.29;79.09
27840;BME280;15207;42.182;24.308;2023-04-29T00:22:27;99422.06;;;7.28;79.11
27840;BME280;15207;42.182;24.308;2023-04-29T00:24:52;99423.84;;;7.43;78.72
27840;BME280;15207;42.182;24.308;2023-04-29T00:27:18;99429.72;;;7.48;76.99
27840;BME280;15207;42.182;24.308;2023-04-29T00:29:44;99427.50;;;7.27;77.62
27840;BME280;15207;42.182;24.308;2023-04-29T00:32:09;99426.53;;;7.28;78.69
27840;BME280;15207;42.182;24.308;2023-04-29T00:34:35;99432.59;;;7.30;79.47
27840;BME280;15207;42.182;24.308;2023-04-29T00:37:00;99433.47;;;7.31;78.92
27840;BME280;15207;42.182;24.308;2023-04-29T00:39:26;99434.59;;;7.41;80.11
27840;BME280;15207;42.182;24.308;2023-04-29T00:41:52;99437.59;;;6.93;78.96
27840;BME280;15207;42.182;24.308;2023-04-29T00:44:17;99441.78;;;6.82;80.63
27840;BME280;15207;42.182;24.308;2023-04-29T00:46:43;99439.38;;;7.07;80.25
27840;BME280;15207;42.182;24.308;2023-04-29T00:49:09;99432.25;;;7.07;80.45
27840;BME280;15207;42.182;24.308;2023-04-29T00:51:35;99431.22;;;6.95;81.43
27840;BME280;15207;42.182;24.308;2023-04-29T00:54:02;99422.34;;;6.95;81.33
27840;BME280;15207;42.182;24.308;2023-04-29T00:56:30;99439.38;;;7.07;80.41
27840;BME280;15207;42.182;24.308;2023-04-29T00:58:57;99425.97;;;7.23;80.23
27840;BME280;15207;42.182;24.308;2023-04-29T01:01:23;99424.53;;;7.17;78.91
27840;BME280;15207;42.182;24.308;2023-04-29T01:03:49;99430.16;;;7.12;79.17
27840;BME280;15207;42.182;24.308;2023-04-29T01:08:52;99431.03;;;7.13;79.23
27840;BME280;15207;42.182;24.308;2023-04-29T01:11:21;99430.44;;;7.22;78.79
27840;BME280;15207;42.182;24.308;2023-04-29T01:13:53;99428.06;;;7.18;78.02
27840;BME280;15207;42.182;24.308;2023-04-29T01:16:46;99418.19;;;6.91;79.62
27840;BME280;15207;42.182;24.308;2023-04-29T01:21:48;99422.38;;;6.66;79.03
27840;BME280;15207;42.182;24.308;2023-04-29T01:24:14;99423.59;;;6.60;79.80
27840;BME280;15207;42.182;24.308;2023-04-29T01:26:49;99419.47;;;6.54;80.08
27840;BME280;15207;42.182;24.308;2023-04-29T01:32:03;99412.47;;;6.53;81.48
27840;BME280;15207;42.182;24.308;2023-04-29T01:37:53;99408.97;;;6.53;82.47
27840;BME280;15207;42.182;24.308;2023-04-29T01:40:36;99413.88;;;6.44;80.55
27840;BME280;15207;42.182;24.308;2023-04-29T01:43:07;99410.88;;;6.34;81.12
27840;BME280;15207;42.182;24.308;2023-04-29T01:45:37;99406.06;;;6.41;81.88
27840;BME280;15207;42.182;24.308;2023-04-29T01:48:05;99405.47;;;6.36;82.69
27840;BME280;15207;42.182;24.308;2023-04-29T01:50:30;99403.16;;;6.46;82.67
27840;BME280;15207;42.182;24.308;2023-04-29T01:52:56;99398.88;;;6.58;82.24
27840;BME280;15207;42.182;24.308;2023-04-29T01:55:22;99395.47;;;6.70;81.01
27840;BME280;15207;42.182;24.308;2023-04-29T01:57:48;99405.16;;;6.71;80.46
27840;BME280;15207;42.182;24.308;2023-04-29T02:00:13;99407.63;;;6.74;80.65
27840;BME280;15207;42.182;24.308;2023-04-29T02:02:39;99408.94;;;6.67;80.85
27840;BME280;15207;42.182;24.308;2023-04-29T02:05:05;99403.81;;;6.64;80.51
27840;BME280;15207;42.182;24.308;2023-04-29T02:07:30;99404.41;;;6.24;80.91
27840;BME280;15207;42.182;24.308;2023-04-29T02:09:56;99390.03;;;6.12;82.29
27840;BME280;15207;42.182;24.308;2023-04-29T02:12:21;99391.44;;;6.03;83.50
27840;BME280;15207;42.182;24.308;2023-04-29T02:14:46;99392.31;;;6.04;83.40
27840;BME280;15207;42.182;24.308;2023-04-29T02:17:12;99396.59;;;6.06;84.47
27840;BME280;15207;42.182;24.308;2023-04-29T02:19:38;99388.94;;;6.00;84.48
27840;BME280;15207;42.182;24.308;2023-04-29T02:22:04;99389.19;;;5.95;84.40
27840;BME280;15207;42.182;24.308;2023-04-29T02:24:29;99383.59;;;5.86;85.23
27840;BME280;15207;42.182;24.308;2023-04-29T02:26:54;99392.81;;;5.94;86.05
27840;BME280;15207;42.182;24.308;2023-04-29T02:29:20;99399.09;;;5.93;85.77
27840;BME280;15207;42.182;24.308;2023-04-29T02:31:45;99397.19;;;5.95;85.31
27840;BME280;15207;42.182;24.308;2023-04-29T02:34:11;99397.25;;;5.94;85.56
27840;BME280;15207;42.182;24.308;2023-04-29T02:36:37;99405.00;;;5.99;84.96
27840;BME280;15207;42.182;24.308;2023-04-29T02:39:02;99403.94;;;6.01;84.81
27840;BME280;15207;42.182;24.308;2023-04-29T02:41:28;99400.19;;;6.05;85.37
27840;BME280;15207;42.182;24.308;2023-04-29T02:43:53;99404.06;;;5.83;84.31
27840;BME280;15207;42.182;24.308;2023-04-29T02:46:19;99397.84;;;5.68;85.12
27840;BME280;15207;42.182;24.308;2023-04-29T02:48:44;99395.69;;;5.75;86.38
27840;BME280;15207;42.182;24.308;2023-04-29T02:51:09;99384.22;;;5.59;86.50
27840;BME280;15207;42.182;24.308;2023-04-29T02:53:35;99395.34;;;5.65;87.03
27840;BME280;15207;42.182;24.308;2023-04-29T02:56:01;99394.75;;;5.60;86.60
27840;BME280;15207;42.182;24.308;2023-04-29T02:58:26;99395.63;;;5.45;88.00
27840;BME280;15207;42.182;24.308;2023-04-29T03:00:52;99394.59;;;5.47;87.95
27840;BME280;15207;42.182;24.308;2023-04-29T03:03:17;99397.69;;;5.39;87.73
27840;BME280;15207;42.182;24.308;2023-04-29T03:05:43;99390.38;;;5.27;88.56
27840;BME280;15207;42.182;24.308;2023-04-29T03:08:08;99393.59;;;5.18;88.97
27840;BME280;15207;42.182;24.308;2023-04-29T03:10:35;99391.41;;;5.24;89.04
27840;BME280;15207;42.182;24.308;2023-04-29T03:13:00;99397.09;;;5.34;89.03
27840;BME280;15207;42.182;24.308;2023-04-29T03:15:26;99400.63;;;5.35;88.27
27840;BME280;15207;42.182;24.308;2023-04-29T03:17:51;99396.41;;;5.31;88.58
27840;BME280;15207;42.182;24.308;2023-04-29T03:20:17;99395.97;;;5.38;88.03
27840;BME280;15207;42.182;24.308;2023-04-29T03:22:42;99393.91;;;5.27;87.95
27840;BME280;15207;42.182;24.308;2023-04-29T03:25:08;99399.13;;;5.13;87.07
27840;BME280;15207;42.182;24.308;2023-04-29T03:27:34;99404.34;;;5.14;87.06
27840;BME280;15207;42.182;24.308;2023-04-29T03:30:00;99404.78;;;5.07;88.28
27840;BME280;15207;42.182;24.308;2023-04-29T03:32:26;99404.34;;;5.14;89.18
27840;BME280;15207;42.182;24.308;2023-04-29T03:34:52;99414.91;;;5.16;90.11
27840;BME280;15207;42.182;24.308;2023-04-29T03:37:18;99418.00;;;5.40;90.22
27840;BME280;15207;42.182;24.308;2023-04-29T03:39:44;99417.84;;;5.43;89.44
27840;BME280;15207;42.182;24.308;2023-04-29T03:42:09;99423.16;;;5.43;87.69
27840;BME280;15207;42.182;24.308;2023-04-29T03:44:35;99423.81;;;5.31;87.78
27840;BME280;15207;42.182;24.308;2023-04-29T03:47:01;99423.81;;;5.31;88.17
27840;BME280;15207;42.182;24.308;2023-04-29T03:49:26;99431.78;;;5.31;88.10
27840;BME280;15207;42.182;24.308;2023-04-29T03:51:51;99432.88;;;5.27;88.55
27840;BME280;15207;42.182;24.308;2023-04-29T03:54:17;99440.09;;;5.41;88.64
27840;BME280;15207;42.182;24.308;2023-04-29T03:56:43;99444.63;;;5.39;88.11
27840;BME280;15207;42.182;24.308;2023-04-29T03:59:08;99443.28;;;5.32;89.02
27840;BME280;15207;42.182;24.308;2023-04-29T04:01:34;99453.22;;;5.28;88.86
27840;BME280;15207;42.182;24.308;2023-04-29T04:03:59;99459.88;;;5.35;89.19
27840;BME280;15207;42.182;24.308;2023-04-29T04:06:25;99457.56;;;5.29;89.42
27840;BME280;15207;42.182;24.308;2023-04-29T04:08:51;99452.34;;;5.27;89.34
27840;BME280;15207;42.182;24.308;2023-04-29T04:11:16;99453.56;;;5.38;89.13
27840;BME280;15207;42.182;24.308;2023-04-29T04:13:42;99445.50;;;5.39;88.10
27840;BME280;15207;42.182;24.308;2023-04-29T04:16:09;99439.44;;;5.37;88.84
27840;BME280;15207;42.182;24.308;2023-04-29T04:18:35;99443.63;;;5.58;88.36
27840;BME280;15207;42.182;24.308;2023-04-29T04:21:11;99448.34;;;5.68;88.35
27840;BME280;15207;42.182;24.308;2023-04-29T04:23:37;99442.38;;;5.95;87.91
27840;BME280;15207;42.182;24.308;2023-04-29T04:26:05;99442.59;;;6.23;87.29
27840;BME280;15207;42.182;24.308;2023-04-29T04:28:31;99448.97;;;6.20;86.66
27840;BME280;15207;42.182;24.308;2023-04-29T04:30:57;99454.44;;;6.17;86.43
27840;BME280;15207;42.182;24.308;2023-04-29T04:33:23;99462.38;;;6.33;86.13
27840;BME280;15207;42.182;24.308;2023-04-29T04:35:49;99466.88;;;6.47;84.56
27840;BME280;15207;42.182;24.308;2023-04-29T04:38:14;99461.22;;;6.54;83.94
27840;BME280;15207;42.182;24.308;2023-04-29T04:40:41;99459.97;;;6.59;83.72
27840;BME280;15207;42.182;24.308;2023-04-29T04:43:07;99456.09;;;6.65;83.29
27840;BME280;15207;42.182;24.308;2023-04-29T04:45:32;99469.06;;;7.00;82.42
27840;BME280;15207;42.182;24.308;2023-04-29T04:47:58;99470.88;;;7.14;81.53
27840;BME280;15207;42.182;24.308;2023-04-29T04:50:26;99468.19;;;7.29;81.60
27840;BME280;15207;42.182;24.308;2023-04-29T04:52:53;99459.31;;;7.58;80.71
27840;BME280;15207;42.182;24.308;2023-04-29T04:55:19;99452.53;;;7.66;79.90
27840;BME280;15207;42.182;24.308;2023-04-29T04:57:44;99457.63;;;7.84;78.50
27840;BME280;15207;42.182;24.308;2023-04-29T05:00:10;99456.13;;;8.20;78.15
27840;BME280;15207;42.182;24.308;2023-04-29T05:05:21;99438.75;;;8.68;73.55
27840;BME280;15207;42.182;24.308;2023-04-29T05:07:47;99446.03;;;8.79;73.63
27840;BME280;15207;42.182;24.308;2023-04-29T05:10:13;99437.00;;;9.19;72.98
27840;BME280;15207;42.182;24.308;2023-04-29T05:12:38;99444.38;;;9.29;72.75
27840;BME280;15207;42.182;24.308;2023-04-29T05:15:04;99447.34;;;9.74;71.35
27840;BME280;15207;42.182;24.308;2023-04-29T05:17:30;99432.63;;;9.93;69.46
27840;BME280;15207;42.182;24.308;2023-04-29T05:19:56;99428.28;;;10.03;69.20
27840;BME280;15207;42.182;24.308;2023-04-29T05:22:21;99432.09;;;10.12;68.03
27840;BME280;15207;42.182;24.308;2023-04-29T05:24:47;99432.16;;;9.99;68.61
27840;BME280;15207;42.182;24.308;2023-04-29T05:27:13;99428.09;;;9.93;68.29
27840;BME280;15207;42.182;24.308;2023-04-29T05:29:39;99438.47;;;9.74;69.60
27840;BME280;15207;42.182;24.308;2023-04-29T05:32:04;99430.41;;;9.87;69.20
27840;BME280;15207;42.182;24.308;2023-04-29T05:34:30;99430.03;;;10.16;66.94
27840;BME280;15207;42.182;24.308;2023-04-29T05:36:56;99417.53;;;10.28;67.18
27840;BME280;15207;42.182;24.308;2023-04-29T05:39:21;99420.56;;;10.48;65.58
27840;BME280;15207;42.182;24.308;2023-04-29T05:41:47;99413.78;;;10.78;64.13
27840;BME280;15207;42.182;24.308;2023-04-29T05:44:13;99418.31;;;10.77;64.41
27840;BME280;15207;42.182;24.308;2023-04-29T05:46:38;99416.34;;;10.68;65.67
27840;BME280;15207;42.182;24.308;2023-04-29T05:49:04;99419.91;;;10.91;66.38
27840;BME280;15207;42.182;24.308;2023-04-29T05:51:29;99422.44;;;11.16;64.50
27840;BME280;15207;42.182;24.308;2023-04-29T05:53:55;99415.00;;;11.08;64.53
27840;BME280;15207;42.182;24.308;2023-04-29T05:56:23;99419.41;;;10.97;65.08
27840;BME280;15207;42.182;24.308;2023-04-29T05:58:49;99405.88;;;11.22;65.26
27840;BME280;15207;42.182;24.308;2023-04-29T06:01:15;99408.38;;;11.58;64.69
27840;BME280;15207;42.182;24.308;2023-04-29T06:03:42;99404.81;;;11.69;63.81
27840;BME280;15207;42.182;24.308;2023-04-29T06:06:08;99407.06;;;11.96;64.05
27840;BME280;15207;42.182;24.308;2023-04-29T06:08:34;99405.91;;;12.10;63.27
27840;BME280;15207;42.182;24.308;2023-04-29T06:10:59;99408.19;;;12.26;62.83
27840;BME280;15207;42.182;24.308;2023-04-29T06:13:26;99392.97;;;12.15;63.44
27840;BME280;15207;42.182;24.308;2023-04-29T06:15:51;99399.13;;;12.27;64.36
27840;BME280;15207;42.182;24.308;2023-04-29T06:18:17;99392.06;;;12.48;64.17
27840;BME280;15207;42.182;24.308;2023-04-29T06:20:43;99399.47;;;12.34;60.85
27840;BME280;15207;42.182;24.308;2023-04-29T06:23:09;99385.44;;;12.52;61.09
27840;BME280;15207;42.182;24.308;2023-04-29T06:25:34;99389.78;;;12.74;58.69
27840;BME280;15207;42.182;24.308;2023-04-29T06:28:00;99379.34;;;13.12;56.39
27840;BME280;15207;42.182;24.308;2023-04-29T06:30:26;99370.66;;;13.40;54.16
27840;BME280;15207;42.182;24.308;2023-04-29T06:32:52;99369.19;;;13.67;52.29
27840;BME280;15207;42.182;24.308;2023-04-29T06:35:17;99366.75;;;13.64;51.76
27840;BME280;15207;42.182;24.308;2023-04-29T06:37:43;99363.78;;;13.57;50.48
27840;BME280;15207;42.182;24.308;2023-04-29T06:40:09;99366.34;;;13.58;51.20
27840;BME280;15207;42.182;24.308;2023-04-29T06:42:35;99368.03;;;13.49;50.99
27840;BME280;15207;42.182;24.308;2023-04-29T06:45:01;99368.59;;;13.12;53.99
27840;BME280;15207;42.182;24.308;2023-04-29T06:47:27;99364.53;;;13.18;52.97
27840;BME280;15207;42.182;24.308;2023-04-29T06:49:53;99363.72;;;13.37;49.11
27840;BME280;15207;42.182;24.308;2023-04-29T06:52:19;99357.06;;;13.41;50.15
27840;BME280;15207;42.182;24.308;2023-04-29T06:54:44;99362.53;;;13.71;47.36
27840;BME280;15207;42.182;24.308;2023-04-29T06:57:10;99351.47;;;13.74;47.68
27840;BME280;15207;42.182;24.308;2023-04-29T06:59:35;99360.41;;;13.84;47.42
27840;BME280;15207;42.182;24.308;2023-04-29T07:02:01;99355.56;;;14.08;47.49
27840;BME280;15207;42.182;24.308;2023-04-29T07:04:26;99352.47;;;14.02;47.40
27840;BME280;15207;42.182;24.308;2023-04-29T07:06:52;99350.19;;;13.88;47.25
27840;BME280;15207;42.182;24.308;2023-04-29T07:09:18;99353.63;;;13.90;46.64
27840;BME280;15207;42.182;24.308;2023-04-29T07:11:44;99350.91;;;14.00;46.28
27840;BME280;15207;42.182;24.308;2023-04-29T07:14:10;99349.47;;;14.15;46.06
27840;BME280;15207;42.182;24.308;2023-04-29T07:16:35;99357.41;;;14.27;44.98
27840;BME280;15207;42.182;24.308;2023-04-29T07:19:01;99349.44;;;14.45;45.45
27840;BME280;15207;42.182;24.308;2023-04-29T07:21:26;99353.19;;;14.82;45.17
27840;BME280;15207;42.182;24.308;2023-04-29T07:23:52;99354.69;;;14.94;44.35
27840;BME280;15207;42.182;24.308;2023-04-29T07:26:19;99365.06;;;14.89;44.09
27840;BME280;15207;42.182;24.308;2023-04-29T07:28:47;99356.19;;;15.07;43.98
27840;BME280;15207;42.182;24.308;2023-04-29T07:31:12;99345.50;;;15.15;43.50
27840;BME280;15207;42.182;24.308;2023-04-29T07:33:38;99335.19;;;15.57;43.47
27840;BME280;15207;42.182;24.308;2023-04-29T07:36:04;99336.50;;;15.71;42.44
27840;BME280;15207;42.182;24.308;2023-04-29T07:38:31;99333.53;;;15.64;42.74
27840;BME280;15207;42.182;24.308;2023-04-29T07:40:58;99329.81;;;15.29;42.86
27840;BME280;15207;42.182;24.308;2023-04-29T07:43:23;99337.88;;;15.75;42.17
27840;BME280;15207;42.182;24.308;2023-04-29T07:45:49;99323.03;;;15.61;41.74
27840;BME280;15207;42.182;24.308;2023-04-29T07:48:15;99332.47;;;15.11;42.19
27840;BME280;15207;42.182;24.308;2023-04-29T07:50:40;99339.44;;;15.03;43.29
27840;BME280;15207;42.182;24.308;2023-04-29T07:53:07;99330.59;;;15.39;42.56
27840;BME280;15207;42.182;24.308;2023-04-29T07:55:33;99338.16;;;15.54;41.78
27840;BME280;15207;42.182;24.308;2023-04-29T07:57:58;99331.47;;;15.40;42.45
27840;BME280;15207;42.182;24.308;2023-04-29T08:00:24;99330.59;;;15.57;42.46
27840;BME280;15207;42.182;24.308;2023-04-29T08:02:54;99330.22;;;15.70;42.08
27840;BME280;15207;42.182;24.308;2023-04-29T08:05:20;99328.38;;;15.89;42.42
27840;BME280;15207;42.182;24.308;2023-04-29T08:07:46;99320.88;;;16.19;41.38
27840;BME280;15207;42.182;24.308;2023-04-29T08:10:13;99312.69;;;16.29;41.04
27840;BME280;15207;42.182;24.308;2023-04-29T08:12:39;99316.50;;;16.18;41.15
27840;BME280;15207;42.182;24.308;2023-04-29T08:15:05;99314.00;;;16.25;41.30
27840;BME280;15207;42.182;24.308;2023-04-29T08:17:31;99314.31;;;16.48;40.03
27840;BME280;15207;42.182;24.308;2023-04-29T08:19:57;99312.94;;;16.44;40.80
27840;BME280;15207;42.182;24.308;2023-04-29T08:22:22;99312.03;;;16.62;40.19
27840;BME280;15207;42.182;24.308;2023-04-29T08:24:48;99314.41;;;16.38;40.75
27840;BME280;15207;42.182;24.308;2023-04-29T08:27:13;99305.34;;;16.74;40.42
27840;BME280;15207;42.182;24.308;2023-04-29T08:29:40;99311.44;;;17.11;39.33
27840;BME280;15207;42.182;24.308;2023-04-29T08:32:06;99309.84;;;16.65;39.28
27840;BME280;15207;42.182;24.308;2023-04-29T08:34:31;99301.38;;;16.60;40.52
27840;BME280;15207;42.182;24.308;2023-04-29T08:36:58;99302.31;;;16.77;40.19
27840;BME280;15207;42.182;24.308;2023-04-29T08:39:23;99303.84;;;17.15;39.38
27840;BME280;15207;42.182;24.308;2023-04-29T08:41:50;99293.09;;;16.97;40.51
27840;BME280;15207;42.182;24.308;2023-04-29T08:44:17;99295.78;;;16.97;40.16
27840;BME280;15207;42.182;24.308;2023-04-29T08:46:44;99306.09;;;17.36;38.51
27840;BME280;15207;42.182;24.308;2023-04-29T08:49:10;99287.75;;;17.13;39.72
27840;BME280;15207;42.182;24.308;2023-04-29T08:51:36;99289.31;;;17.24;39.05
27840;BME280;15207;42.182;24.308;2023-04-29T08:54:01;99277.22;;;17.78;38.45
27840;BME280;15207;42.182;24.308;2023-04-29T08:56:27;99274.81;;;18.17;37.35
27840;BME280;15207;42.182;24.308;2023-04-29T08:58:56;99273.97;;;17.83;37.68
27840;BME280;15207;42.182;24.308;2023-04-29T09:01:26;99284.03;;;17.14;38.36
27840;BME280;15207;42.182;24.308;2023-04-29T09:06:36;99267.16;;;17.29;38.39
27840;BME280;15207;42.182;24.308;2023-04-29T09:09:02;99269.66;;;17.05;38.79
27840;BME280;15207;42.182;24.308;2023-04-29T09:11:29;99262.31;;;17.66;37.57
27840;BME280;15207;42.182;24.308;2023-04-29T09:13:59;99259.09;;;17.87;37.27
27840;BME280;15207;42.182;24.308;2023-04-29T09:16:26;99252.00;;;17.86;37.33
27840;BME280;15207;42.182;24.308;2023-04-29T09:18:52;99250.91;;;18.29;36.91
27840;BME280;15207;42.182;24.308;2023-04-29T09:21:27;99244.31;;;18.40;37.05
27840;BME280;15207;42.182;24.308;2023-04-29T09:23:54;99237.38;;;18.77;36.37
27840;BME280;15207;42.182;24.308;2023-04-29T09:26:20;99240.00;;;18.62;36.49
27840;BME280;15207;42.182;24.308;2023-04-29T09:28:47;99234.53;;;18.70;36.88
27840;BME280;15207;42.182;24.308;2023-04-29T09:31:29;99230.09;;;18.77;36.55
27840;BME280;15207;42.182;24.308;2023-04-29T09:33:56;99229.63;;;18.17;36.99
27840;BME280;15207;42.182;24.308;2023-04-29T09:39:14;99223.88;;;17.62;37.52
27840;BME280;15207;42.182;24.308;2023-04-29T09:42:00;99213.41;;;17.26;38.65
27840;BME280;15207;42.182;24.308;2023-04-29T09:44:32;99197.16;;;17.42;39.30
27840;BME280;15207;42.182;24.308;2023-04-29T09:47:05;99186.31;;;17.59;38.60
27840;BME280;15207;42.182;24.308;2023-04-29T09:49:40;99184.97;;;17.80;38.54
27840;BME280;15207;42.182;24.308;2023-04-29T09:52:11;99191.50;;;18.19;37.87
27840;BME280;15207;42.182;24.308;2023-04-29T09:54:39;99193.03;;;18.21;37.22
27840;BME280;15207;42.182;24.308;2023-04-29T09:57:07;99188.88;;;18.42;37.98
27840;BME280;15207;42.182;24.308;2023-04-29T09:59:35;99178.81;;;18.59;36.68
27840;BME280;15207;42.182;24.308;2023-04-29T10:02:15;99183.97;;;18.46;36.22
27840;BME280;15207;42.182;24.308;2023-04-29T10:04:44;99181.78;;;18.41;36.25
27840;BME280;15207;42.182;24.308;2023-04-29T10:07:14;99177.22;;;18.73;37.03
27840;BME280;15207;42.182;24.308;2023-04-29T10:09:41;99173.31;;;18.76;36.13
27840;BME280;15207;42.182;24.308;2023-04-29T10:12:07;99165.91;;;18.93;35.40
27840;BME280;15207;42.182;24.308;2023-04-29T10:14:38;99155.91;;;18.94;35.51
27840;BME280;15207;42.182;24.308;2023-04-29T10:17:23;99156.09;;;18.60;36.16
27840;BME280;15207;42.182;24.308;2023-04-29T10:20:04;99156.13;;;18.04;35.81
27840;BME280;15207;42.182;24.308;2023-04-29T10:22:52;99150.41;;;17.90;36.22
27840;BME280;15207;42.182;24.308;2023-04-29T10:25:22;99146.03;;;17.73;36.44
27840;BME280;15207;42.182;24.308;2023-04-29T10:27:49;99132.50;;;18.37;36.45
27840;BME280;15207;42.182;24.308;2023-04-29T10:30:18;99126.91;;;18.94;34.98
27840;BME280;15207;42.182;24.308;2023-04-29T10:32:45;99126.34;;;19.31;34.73
27840;BME280;15207;42.182;24.308;2023-04-29T10:35:13;99129.25;;;19.44;33.56
27840;BME280;15207;42.182;24.308;2023-04-29T10:37:41;99128.50;;;19.35;34.01
27840;BME280;15207;42.182;24.308;2023-04-29T10:40:58;99109.06;;;19.62;32.12
27840;BME280;15207;42.182;24.308;2023-04-29T10:43:05;99116.88;;;19.26;32.39
27840;BME280;15207;42.182;24.308;2023-04-29T10:45:31;99111.16;;;19.36;32.86
27840;BME280;15207;42.182;24.308;2023-04-29T10:53:15;99104.69;;;19.91;32.17
27840;BME280;15207;42.182;24.308;2023-04-29T10:55:41;99100.53;;;19.95;31.55
27840;BME280;15207;42.182;24.308;2023-04-29T11:01:04;99089.81;;;20.17;31.21
27840;BME280;15207;42.182;24.308;2023-04-29T11:09:11;99075.34;;;19.17;30.86
27840;BME280;15207;42.182;24.308;2023-04-29T11:12:00;99075.34;;;19.17;31.32
27840;BME280;15207;42.182;24.308;2023-04-29T11:17:02;99066.78;;;18.82;31.66
27840;BME280;15207;42.182;24.308;2023-04-29T11:19:55;99058.78;;;19.12;31.84
27840;BME280;15207;42.182;24.308;2023-04-29T11:24:49;99056.69;;;19.23;32.20
27840;BME280;15207;42.182;24.308;2023-04-29T11:27:15;99048.59;;;19.53;30.15
27840;BME280;15207;42.182;24.308;2023-04-29T11:29:41;99047.81;;;19.29;31.17
27840;BME280;15207;42.182;24.308;2023-04-29T11:32:09;99050.25;;;19.54;29.90
27840;BME280;15207;42.182;24.308;2023-04-29T11:34:35;99045.88;;;19.83;29.83
27840;BME280;15207;42.182;24.308;2023-04-29T11:37:00;99043.25;;;20.05;29.29
27840;BME280;15207;42.182;24.308;2023-04-29T11:39:26;99035.63;;;20.15;29.08
27840;BME280;15207;42.182;24.308;2023-04-29T11:42:05;99039.59;;;19.98;28.34
27840;BME280;15207;42.182;24.308;2023-04-29T11:44:33;99024.44;;;19.58;30.21
27840;BME280;15207;42.182;24.308;2023-04-29T11:47:03;99034.06;;;19.91;28.52
27840;BME280;15207;42.182;24.308;2023-04-29T11:49:33;99014.00;;;19.92;28.62
27840;BME280;15207;42.182;24.308;2023-04-29T11:51:59;99012.09;;;19.92;29.27
27840;BME280;15207;42.182;24.308;2023-04-29T11:54:34;99012.47;;;20.19;28.67
27840;BME280;15207;42.182;24.308;2023-04-29T11:56:59;99008.75;;;20.05;28.04
27840;BME280;15207;42.182;24.308;2023-04-29T11:59:30;99000.75;;;20.19;28.44
27840;BME280;15207;42.182;24.308;2023-04-29T12:01:59;98992.91;;;20.09;28.89
27840;BME280;15207;42.182;24.308;2023-04-29T12:04:25;98992.78;;;20.17;27.84
27840;BME280;15207;42.182;24.308;2023-04-29T12:06:51;98995.94;;;19.84;29.06
27840;BME280;15207;42.182;24.308;2023-04-29T12:09:20;98977.88;;;19.76;28.73
27840;BME280;15207;42.182;24.308;2023-04-29T12:11:46;98980.50;;;20.21;28.17
27840;BME280;15207;42.182;24.308;2023-04-29T12:14:13;98980.53;;;20.43;27.38
27840;BME280;15207;42.182;24.308;2023-04-29T12:16:38;98976.00;;;20.51;26.98
27840;BME280;15207;42.182;24.308;2023-04-29T12:19:04;98974.19;;;19.99;27.20
27840;BME280;15207;42.182;24.308;2023-04-29T12:21:31;98976.09;;;19.99;27.07
27840;BME280;15207;42.182;24.308;2023-04-29T12:23:58;98973.13;;;20.15;27.44
27840;BME280;15207;42.182;24.308;2023-04-29T12:26:27;98964.06;;;20.30;26.07
27840;BME280;15207;42.182;24.308;2023-04-29T12:28:53;98954.13;;;20.00;26.65
27840;BME280;15207;42.182;24.308;2023-04-29T12:31:19;98945.00;;;20.08;27.53
27840;BME280;15207;42.182;24.308;2023-04-29T12:33:45;98953.31;;;20.65;26.50
27840;BME280;15207;42.182;24.308;2023-04-29T12:36:18;98934.84;;;21.11;27.01
27840;BME280;15207;42.182;24.308;2023-04-29T12:38:44;98946.59;;;21.11;26.59
27840;BME280;15207;42.182;24.308;2023-04-29T12:41:12;98946.53;;;20.54;26.01
27840;BME280;15207;42.182;24.308;2023-04-29T12:43:42;98938.16;;;20.56;27.00
27840;BME280;15207;42.182;24.308;2023-04-29T12:46:09;98937.88;;;20.72;26.71
27840;BME280;15207;42.182;24.308;2023-04-29T12:48:40;98937.00;;;20.65;26.42
27840;BME280;15207;42.182;24.308;2023-04-29T12:51:08;98935.78;;;20.68;25.71
27840;BME280;15207;42.182;24.308;2023-04-29T12:53:34;98921.91;;;20.63;26.31
27840;BME280;15207;42.182;24.308;2023-04-29T12:56:00;98929.13;;;20.27;26.71
27840;BME280;15207;42.182;24.308;2023-04-29T12:58:29;98918.88;;;20.51;26.65
27840;BME280;15207;42.182;24.308;2023-04-29T13:00:55;98920.81;;;20.85;26.11
27840;BME280;15207;42.182;24.308;2023-04-29T13:03:20;98921.88;;;20.84;26.22
27840;BME280;15207;42.182;24.308;2023-04-29T13:05:46;98922.28;;;21.10;25.71
27840;BME280;15207;42.182;24.308;2023-04-29T13:08:15;98910.06;;;21.34;25.39
27840;BME280;15207;42.182;24.308;2023-04-29T13:10:41;98916.47;;;21.20;25.06
27840;BME280;15207;42.182;24.308;2023-04-29T13:13:07;98905.56;;;21.55;24.76
27840;BME280;15207;42.182;24.308;2023-04-29T13:15:33;98899.72;;;21.65;24.76
27840;BME280;15207;42.182;24.308;2023-04-29T13:18:00;98902.03;;;21.61;25.09
27840;BME280;15207;42.182;24.308;2023-04-29T13:20:26;98904.31;;;21.16;25.11
27840;BME280;15207;42.182;24.308;2023-04-29T13:22:51;98901.31;;;21.04;25.38
27840;BME280;15207;42.182;24.308;2023-04-29T13:25:17;98897.84;;;20.88;25.99
27840;BME280;15207;42.182;24.308;2023-04-29T13:27:43;98889.06;;;20.86;25.39
27840;BME280;15207;42.182;24.308;2023-04-29T13:30:08;98888.78;;;20.81;27.22
27840;BME280;15207;42.182;24.308;2023-04-29T13:32:34;98886.88;;;21.03;27.44